Flight Track Log - Related Links

Times and Time Zones

All times are in EDT time to prevent confusion due to time zone crossing. See the SWA1377 flight status page for this flight to view local times or setup timezone preferences in your user account.

Time Position Orientation Groundspeed Altitude Reporting Facility
EDT Latitude Longitude Course Direction KTS MPH feet Rate Location/Type
Mon 12:26:49 PM 42.8292 -78.7489 187° South 231 266 6,700  Level Cleveland Center
Mon 12:27:49 PM 42.7603 -78.7339 171° South 247 284 9,700 2,672 Climbing Cleveland Center
Mon 12:28:48 PM 42.6744 -78.7164 171° South 279 321 12,000 3,000 Climbing Cleveland Center
Mon 12:29:49 PM 42.5700 -78.7028 175° South 336 387 15,700 3,868 Climbing Cleveland Center
Mon 12:30:49 PM 42.4653 -78.6806 171° South 374 430 19,800 3,950 Climbing Cleveland Center
Mon 12:31:49 PM 42.3650 -78.6667 174° South 379 436 23,600 2,600 Climbing Cleveland Center
Mon 12:32:49 PM 42.2606 -78.6500 173° South 379 436 25,000 700 Climbing Cleveland Center
Mon 12:33:49 PM 42.1414 -78.6203 170° South 401 461 25,000  Level Cleveland Center
Mon 12:34:49 PM 42.0372 -78.5172 144° Southeast 424 488 25,000  Level Cleveland Center
Mon 12:35:49 PM 41.9417 -78.4169 142° Southeast 438 504 25,000  Level Cleveland Center
Mon 12:36:49 PM 41.8436 -78.3114 141° Southeast 445 512 25,000  Level Cleveland Center
Mon 12:39:15 PM 41.5919 -78.0522 142° Southeast 456 525 25,000  Level New York Center
Mon 12:40:15 PM 41.4942 -77.9475 141° Southeast 461 531 25,000  Level New York Center
Mon 12:41:16 PM 41.4275 -77.8433 130° Southeast 461 531 25,000 -1,289 Level New York Center
Mon 12:42:16 PM 41.3375 -77.7069 131° Southeast 456 525 22,400 -2,579 Descending New York Center
Mon 12:43:17 PM 41.2592 -77.5856 131° Southeast 446 513 19,800 -1,785 Descending New York Center
Mon 12:44:17 PM 41.1822 -77.4703 132° Southeast 428 493 18,800 -807 Descending New York Center
Mon 12:45:16 PM 41.0975 -77.3464 132° Southeast 423 487 18,200 -756 Descending New York Center
Mon 12:46:16 PM 41.0225 -77.2317 131° Southeast 418 481 17,300 -942 Descending New York Center
Mon 12:47:17 PM 40.9472 -77.1228 132° Southeast 412 474 16,300 -992 Descending New York Center
Mon 12:48:17 PM 40.8739 -77.0117 131° Southeast 406 467 15,300 -661 Descending New York Center
Mon 12:49:15 PM 40.8103 -76.9156 131° Southeast 396 456 15,000 -153 Descending New York Center
Mon 12:50:15 PM 40.7222 -76.8033 136° Southeast 396 456 15,000  Level New York Center
Mon 12:51:16 PM 40.6417 -76.7089 138° Southeast 396 456 15,000  Level New York Center
Mon 12:52:16 PM 40.5631 -76.6092 136° Southeast 396 456 15,000  Level New York Center
Mon 12:53:17 PM 40.5056 -76.5061 126° Southeast 391 450 15,000  Level New York Center
Mon 12:54:15 PM 40.4403 -76.3914 127° Southeast 391 450 15,000  Level New York Center
Mon 12:55:15 PM 40.3556 -76.2864 137° Southeast 391 450 15,000 -446 Level New York Center
Mon 12:56:16 PM 40.2536 -76.2811 178° South 361 415 14,100 -1,140 Descending New York Center
Mon 12:57:16 PM 40.1594 -76.2900 184° South 368 423 12,700 -781 Descending New York Center
Mon 12:59:05 PM 39.9667 -76.3000 182° South 357 411 11,900 -282 Descending Potomac TRACON
Mon 01:00:06 PM 39.8833 -76.3000 180° South 287 330 11,900 -545 Level Potomac TRACON
Mon 01:01:06 PM 39.8167 -76.3667 218° Southwest 279 321 10,800 -1,350 Descending Potomac TRACON
Mon 01:02:06 PM 39.7500 -76.4167 210° Southwest 276 318 9,200 -1,600 Descending Potomac TRACON
Mon 01:03:06 PM 39.7000 -76.4667 218° Southwest 272 313 7,600 -1,600 Descending Potomac TRACON
Mon 01:04:06 PM 39.6333 -76.5333 218° Southwest 271 312 6,000 -1,368 Descending Potomac TRACON
Mon 01:05:00 PM 39.5667 -76.5667 201° Southwest 267 307 5,000 -1,053 Descending Potomac TRACON
Mon 01:06:00 PM 39.5167 -76.6333 226° Southwest 264 304 4,000 -500 Descending Potomac TRACON
Mon 01:07:00 PM 39.4500 -76.6833 210° Southwest 257 296 4,000 -143 Level Potomac TRACON
Mon 01:08:06 PM 39.3833 -76.7333 210° Southwest 252 290 3,700 -619 Descending Potomac TRACON
Mon 01:09:06 PM 39.3333 -76.7833 218° Southwest 247 284 2,700 -789 Descending Potomac TRACON
Mon 01:10:00 PM 39.2667 -76.8000 191° South 217 250 2,200 -495 Descending Potomac TRACON
Mon 01:10:55 PM 39.2167 -76.8000 180° South 190 219 1,800 -417 Descending Potomac TRACON
Mon 01:11:55 PM 39.1833 -76.7667 142° Southeast 158 182 1,400 -524 Descending Potomac TRACON
Mon 01:13:01 PM 39.1833 -76.7167 90° East 123 142 700 -636 Descending Potomac TRACON
Mon 01:15:00 PM 39.1667 -76.6667 270° West  Level FlightAware Approximate
Mon 01:22:00 PM 39.1754 -76.6683 270° West  Level Estimated
Mon 01:23:00 PM 39.1754 -76.6683 270° West  Level Estimated

Login

Don't have an account? Register now (free) for customized features, flight alerts, and more!